sensor_id;sensor_type;location;lat;lon;timestamp;temperature;humidity
32296;DHT22;18781;51.550;5.418;2023-12-29T00:00:05;14.10;68.10
32296;DHT22;18781;51.550;5.418;2023-12-29T00:02:32;14.10;68.00
32296;DHT22;18781;51.550;5.418;2023-12-29T00:04:57;14.10;68.10
32296;DHT22;18781;51.550;5.418;2023-12-29T00:07:23;14.00;68.10
32296;DHT22;18781;51.550;5.418;2023-12-29T00:09:48;14.00;68.20
32296;DHT22;18781;51.550;5.418;2023-12-29T00:12:14;14.00;68.20
32296;DHT22;18781;51.550;5.418;2023-12-29T00:14:40;14.00;68.20
32296;DHT22;18781;51.550;5.418;2023-12-29T00:17:06;14.00;68.20
32296;DHT22;18781;51.550;5.418;2023-12-29T00:19:31;14.00;68.40
32296;DHT22;18781;51.550;5.418;2023-12-29T00:21:57;14.00;68.40
32296;DHT22;18781;51.550;5.418;2023-12-29T00:24:25;14.00;68.30
32296;DHT22;18781;51.550;5.418;2023-12-29T00:26:51;14.10;68.30
32296;DHT22;18781;51.550;5.418;2023-12-29T00:29:16;14.10;68.40
32296;DHT22;18781;51.550;5.418;2023-12-29T00:31:43;14.10;68.40
32296;DHT22;18781;51.550;5.418;2023-12-29T00:34:08;14.10;68.30
32296;DHT22;18781;51.550;5.418;2023-12-29T00:36:34;14.10;68.30
32296;DHT22;18781;51.550;5.418;2023-12-29T00:38:59;14.10;68.30
32296;DHT22;18781;51.550;5.418;2023-12-29T00:41:25;14.10;68.30
32296;DHT22;18781;51.550;5.418;2023-12-29T00:43:51;14.10;68.30
32296;DHT22;18781;51.550;5.418;2023-12-29T00:46:16;14.10;68.30
32296;DHT22;18781;51.550;5.418;2023-12-29T00:48:42;14.10;68.30
32296;DHT22;18781;51.550;5.418;2023-12-29T00:51:08;14.10;68.40
32296;DHT22;18781;51.550;5.418;2023-12-29T00:53:35;14.10;68.70
32296;DHT22;18781;51.550;5.418;2023-12-29T00:56:00;14.00;69.00
32296;DHT22;18781;51.550;5.418;2023-12-29T00:58:26;14.00;69.30
32296;DHT22;18781;51.550;5.418;2023-12-29T01:00:52;14.00;69.50
32296;DHT22;18781;51.550;5.418;2023-12-29T01:03:17;14.00;69.70
32296;DHT22;18781;51.550;5.418;2023-12-29T01:05:43;14.00;69.90
32296;DHT22;18781;51.550;5.418;2023-12-29T01:08:09;14.00;70.00
32296;DHT22;18781;51.550;5.418;2023-12-29T01:10:34;14.00;70.20
32296;DHT22;18781;51.550;5.418;2023-12-29T01:13:00;13.90;70.20
32296;DHT22;18781;51.550;5.418;2023-12-29T01:15:26;13.90;70.60
32296;DHT22;18781;51.550;5.418;2023-12-29T01:17:51;13.90;70.80
32296;DHT22;18781;51.550;5.418;2023-12-29T01:20:17;13.80;71.10
32296;DHT22;18781;51.550;5.418;2023-12-29T01:22:43;13.80;71.20
32296;DHT22;18781;51.550;5.418;2023-12-29T01:25:08;13.70;71.50
32296;DHT22;18781;51.550;5.418;2023-12-29T01:27:34;13.70;71.70
32296;DHT22;18781;51.550;5.418;2023-12-29T01:29:59;13.70;72.50
32296;DHT22;18781;51.550;5.418;2023-12-29T01:32:25;13.60;72.10
32296;DHT22;18781;51.550;5.418;2023-12-29T01:34:54;13.60;72.50
32296;DHT22;18781;51.550;5.418;2023-12-29T01:37:20;13.60;72.70
32296;DHT22;18781;51.550;5.418;2023-12-29T01:39:45;13.50;72.90
32296;DHT22;18781;51.550;5.418;2023-12-29T01:42:11;13.50;72.90
32296;DHT22;18781;51.550;5.418;2023-12-29T01:44:37;13.50;73.10
32296;DHT22;18781;51.550;5.418;2023-12-29T01:47:04;13.40;73.40
32296;DHT22;18781;51.550;5.418;2023-12-29T01:49:35;13.40;73.50
32296;DHT22;18781;51.550;5.418;2023-12-29T01:52:02;13.40;73.80
32296;DHT22;18781;51.550;5.418;2023-12-29T01:54:34;13.30;73.90
32296;DHT22;18781;51.550;5.418;2023-12-29T01:57:02;13.30;74.00
32296;DHT22;18781;51.550;5.418;2023-12-29T01:59:28;13.30;74.30
32296;DHT22;18781;51.550;5.418;2023-12-29T02:01:54;13.30;74.30
32296;DHT22;18781;51.550;5.418;2023-12-29T02:04:26;13.30;74.50
32296;DHT22;18781;51.550;5.418;2023-12-29T02:06:52;13.20;74.60
32296;DHT22;18781;51.550;5.418;2023-12-29T02:09:18;13.20;74.50
32296;DHT22;18781;51.550;5.418;2023-12-29T02:11:45;13.20;74.60
32296;DHT22;18781;51.550;5.418;2023-12-29T02:14:11;13.20;74.90
32296;DHT22;18781;51.550;5.418;2023-12-29T02:17:00;13.20;74.70
32296;DHT22;18781;51.550;5.418;2023-12-29T02:19:46;13.20;74.80
32296;DHT22;18781;51.550;5.418;2023-12-29T02:22:14;13.20;74.80
32296;DHT22;18781;51.550;5.418;2023-12-29T02:24:47;13.10;74.80
32296;DHT22;18781;51.550;5.418;2023-12-29T02:30:20;13.10;74.80
32296;DHT22;18781;51.550;5.418;2023-12-29T02:32:47;13.20;75.10
32296;DHT22;18781;51.550;5.418;2023-12-29T02:35:23;13.20;74.90
32296;DHT22;18781;51.550;5.418;2023-12-29T02:37:49;13.10;74.90
32296;DHT22;18781;51.550;5.418;2023-12-29T02:40:15;13.20;74.80
32296;DHT22;18781;51.550;5.418;2023-12-29T02:42:46;13.20;74.80
32296;DHT22;18781;51.550;5.418;2023-12-29T02:45:12;13.20;74.80
32296;DHT22;18781;51.550;5.418;2023-12-29T02:47:38;13.20;74.70
32296;DHT22;18781;51.550;5.418;2023-12-29T02:50:04;13.20;74.70
32296;DHT22;18781;51.550;5.418;2023-12-29T02:52:30;13.20;74.60
32296;DHT22;18781;51.550;5.418;2023-12-29T02:54:55;13.20;74.50
32296;DHT22;18781;51.550;5.418;2023-12-29T02:57:21;13.20;74.40
32296;DHT22;18781;51.550;5.418;2023-12-29T02:59:46;13.20;74.30
32296;DHT22;18781;51.550;5.418;2023-12-29T03:02:12;13.20;74.30
32296;DHT22;18781;51.550;5.418;2023-12-29T03:04:38;13.30;74.30
32296;DHT22;18781;51.550;5.418;2023-12-29T03:07:03;13.20;74.20
32296;DHT22;18781;51.550;5.418;2023-12-29T03:09:29;13.20;74.30
32296;DHT22;18781;51.550;5.418;2023-12-29T03:11:55;13.20;74.10
32296;DHT22;18781;51.550;5.418;2023-12-29T03:14:22;13.30;74.10
32296;DHT22;18781;51.550;5.418;2023-12-29T03:16:48;13.30;74.00
32296;DHT22;18781;51.550;5.418;2023-12-29T03:19:14;13.30;73.90
32296;DHT22;18781;51.550;5.418;2023-12-29T03:21:39;13.30;73.90
32296;DHT22;18781;51.550;5.418;2023-12-29T03:24:05;13.30;73.90
32296;DHT22;18781;51.550;5.418;2023-12-29T03:26:31;13.30;73.80
32296;DHT22;18781;51.550;5.418;2023-12-29T03:28:56;13.30;73.60
32296;DHT22;18781;51.550;5.418;2023-12-29T03:31:22;13.30;73.50
32296;DHT22;18781;51.550;5.418;2023-12-29T03:33:47;13.30;73.40
32296;DHT22;18781;51.550;5.418;2023-12-29T03:36:13;13.30;73.30
32296;DHT22;18781;51.550;5.418;2023-12-29T03:38:39;13.30;73.20
32296;DHT22;18781;51.550;5.418;2023-12-29T03:41:05;13.30;73.10
32296;DHT22;18781;51.550;5.418;2023-12-29T03:43:30;13.40;73.00
32296;DHT22;18781;51.550;5.418;2023-12-29T03:45:56;13.40;72.90
32296;DHT22;18781;51.550;5.418;2023-12-29T03:48:21;13.40;72.90
32296;DHT22;18781;51.550;5.418;2023-12-29T03:50:47;13.40;73.00
32296;DHT22;18781;51.550;5.418;2023-12-29T03:53:13;13.40;73.00
32296;DHT22;18781;51.550;5.418;2023-12-29T03:55:40;13.40;72.90
32296;DHT22;18781;51.550;5.418;2023-12-29T03:58:07;13.40;72.80
32296;DHT22;18781;51.550;5.418;2023-12-29T04:00:33;13.40;72.80
32296;DHT22;18781;51.550;5.418;2023-12-29T04:02:59;13.40;72.70
32296;DHT22;18781;51.550;5.418;2023-12-29T04:05:24;13.40;72.80
32296;DHT22;18781;51.550;5.418;2023-12-29T04:07:50;13.40;72.80
32296;DHT22;18781;51.550;5.418;2023-12-29T04:10:15;13.40;72.70
32296;DHT22;18781;51.550;5.418;2023-12-29T04:12:41;13.40;72.60
32296;DHT22;18781;51.550;5.418;2023-12-29T04:15:07;13.40;72.60
32296;DHT22;18781;51.550;5.418;2023-12-29T04:17:33;13.40;72.60
32296;DHT22;18781;51.550;5.418;2023-12-29T04:19:58;13.40;72.50
32296;DHT22;18781;51.550;5.418;2023-12-29T04:22:25;13.40;72.50
32296;DHT22;18781;51.550;5.418;2023-12-29T04:24:50;13.40;72.50
32296;DHT22;18781;51.550;5.418;2023-12-29T04:27:17;13.40;72.40
32296;DHT22;18781;51.550;5.418;2023-12-29T04:29:44;13.40;72.30
32296;DHT22;18781;51.550;5.418;2023-12-29T04:32:10;13.40;72.30
32296;DHT22;18781;51.550;5.418;2023-12-29T04:34:36;13.40;72.30
32296;DHT22;18781;51.550;5.418;2023-12-29T04:37:01;13.40;72.10
32296;DHT22;18781;51.550;5.418;2023-12-29T04:39:27;13.40;72.10
32296;DHT22;18781;51.550;5.418;2023-12-29T04:41:53;13.40;72.10
32296;DHT22;18781;51.550;5.418;2023-12-29T04:44:18;13.40;72.00
32296;DHT22;18781;51.550;5.418;2023-12-29T04:46:44;13.40;71.80
32296;DHT22;18781;51.550;5.418;2023-12-29T04:49:09;13.40;71.70
32296;DHT22;18781;51.550;5.418;2023-12-29T04:51:35;13.40;71.70
32296;DHT22;18781;51.550;5.418;2023-12-29T04:54:01;13.40;71.80
32296;DHT22;18781;51.550;5.418;2023-12-29T04:56:27;13.40;71.60
32296;DHT22;18781;51.550;5.418;2023-12-29T04:58:53;13.40;71.60
32296;DHT22;18781;51.550;5.418;2023-12-29T05:01:18;13.40;71.60
32296;DHT22;18781;51.550;5.418;2023-12-29T05:03:44;13.40;71.50
32296;DHT22;18781;51.550;5.418;2023-12-29T05:06:10;13.40;71.40
32296;DHT22;18781;51.550;5.418;2023-12-29T05:08:36;13.40;71.30
32296;DHT22;18781;51.550;5.418;2023-12-29T05:11:01;13.40;71.20
32296;DHT22;18781;51.550;5.418;2023-12-29T05:13:27;13.40;71.30
32296;DHT22;18781;51.550;5.418;2023-12-29T05:15:52;13.40;71.20
32296;DHT22;18781;51.550;5.418;2023-12-29T05:18:18;13.40;71.30
32296;DHT22;18781;51.550;5.418;2023-12-29T05:20:44;13.40;71.40
32296;DHT22;18781;51.550;5.418;2023-12-29T05:23:09;13.30;71.50
32296;DHT22;18781;51.550;5.418;2023-12-29T05:25:35;13.30;71.60
32296;DHT22;18781;51.550;5.418;2023-12-29T05:28:01;13.30;71.70
32296;DHT22;18781;51.550;5.418;2023-12-29T05:30:26;13.30;71.60
32296;DHT22;18781;51.550;5.418;2023-12-29T05:32:53;13.40;71.80
32296;DHT22;18781;51.550;5.418;2023-12-29T05:35:18;13.40;71.70
32296;DHT22;18781;51.550;5.418;2023-12-29T05:37:44;13.30;71.70
32296;DHT22;18781;51.550;5.418;2023-12-29T05:40:10;13.30;71.70
32296;DHT22;18781;51.550;5.418;2023-12-29T05:42:36;13.40;71.80
32296;DHT22;18781;51.550;5.418;2023-12-29T05:45:02;13.30;71.70
32296;DHT22;18781;51.550;5.418;2023-12-29T05:47:27;13.30;71.80
32296;DHT22;18781;51.550;5.418;2023-12-29T05:49:53;13.30;71.90
32296;DHT22;18781;51.550;5.418;2023-12-29T05:52:19;13.30;71.90
32296;DHT22;18781;51.550;5.418;2023-12-29T05:54:45;13.30;71.90
32296;DHT22;18781;51.550;5.418;2023-12-29T05:57:10;13.30;72.00
32296;DHT22;18781;51.550;5.418;2023-12-29T05:59:36;13.20;72.00
32296;DHT22;18781;51.550;5.418;2023-12-29T06:02:01;13.20;72.10
32296;DHT22;18781;51.550;5.418;2023-12-29T06:04:28;13.20;72.10
32296;DHT22;18781;51.550;5.418;2023-12-29T06:06:53;13.20;72.20
32296;DHT22;18781;51.550;5.418;2023-12-29T06:09:19;13.20;72.30
32296;DHT22;18781;51.550;5.418;2023-12-29T06:11:45;13.20;72.50
32296;DHT22;18781;51.550;5.418;2023-12-29T06:14:11;13.20;72.80
32296;DHT22;18781;51.550;5.418;2023-12-29T06:16:36;13.20;73.20
32296;DHT22;18781;51.550;5.418;2023-12-29T06:19:02;13.20;73.30
32296;DHT22;18781;51.550;5.418;2023-12-29T06:21:28;13.20;73.60
32296;DHT22;18781;51.550;5.418;2023-12-29T06:23:54;13.20;73.60
32296;DHT22;18781;51.550;5.418;2023-12-29T06:26:20;13.20;73.60
32296;DHT22;18781;51.550;5.418;2023-12-29T06:28:47;13.10;73.70
32296;DHT22;18781;51.550;5.418;2023-12-29T06:31:13;13.20;73.80
32296;DHT22;18781;51.550;5.418;2023-12-29T06:33:42;13.20;74.30
32296;DHT22;18781;51.550;5.418;2023-12-29T06:36:09;13.10;73.70
32296;DHT22;18781;51.550;5.418;2023-12-29T06:38:35;13.20;73.80
32296;DHT22;18781;51.550;5.418;2023-12-29T06:41:02;13.10;73.80
32296;DHT22;18781;51.550;5.418;2023-12-29T06:43:28;13.10;73.80
32296;DHT22;18781;51.550;5.418;2023-12-29T06:45:54;13.20;73.90
32296;DHT22;18781;51.550;5.418;2023-12-29T06:48:19;13.20;73.90
32296;DHT22;18781;51.550;5.418;2023-12-29T06:50:46;13.20;74.00
32296;DHT22;18781;51.550;5.418;2023-12-29T06:53:12;13.20;74.00
32296;DHT22;18781;51.550;5.418;2023-12-29T06:55:37;13.20;74.10
32296;DHT22;18781;51.550;5.418;2023-12-29T06:58:04;13.20;74.10
32296;DHT22;18781;51.550;5.418;2023-12-29T07:00:30;13.20;74.10
32296;DHT22;18781;51.550;5.418;2023-12-29T07:02:56;13.20;74.10
32296;DHT22;18781;51.550;5.418;2023-12-29T07:05:21;13.20;74.20
32296;DHT22;18781;51.550;5.418;2023-12-29T07:07:47;13.20;74.20
32296;DHT22;18781;51.550;5.418;2023-12-29T07:10:13;13.20;74.30
32296;DHT22;18781;51.550;5.418;2023-12-29T07:12:42;13.20;74.20
32296;DHT22;18781;51.550;5.418;2023-12-29T07:15:08;13.20;74.30
32296;DHT22;18781;51.550;5.418;2023-12-29T07:17:33;13.20;74.40
32296;DHT22;18781;51.550;5.418;2023-12-29T07:20:00;13.20;74.50
32296;DHT22;18781;51.550;5.418;2023-12-29T07:22:26;13.20;74.60
32296;DHT22;18781;51.550;5.418;2023-12-29T07:24:52;13.20;74.70
32296;DHT22;18781;51.550;5.418;2023-12-29T07:27:17;13.20;74.80
32296;DHT22;18781;51.550;5.418;2023-12-29T07:29:43;13.20;74.90
32296;DHT22;18781;51.550;5.418;2023-12-29T07:32:08;13.20;74.90
32296;DHT22;18781;51.550;5.418;2023-12-29T07:34:34;13.20;74.90
32296;DHT22;18781;51.550;5.418;2023-12-29T07:37:00;13.20;75.00
32296;DHT22;18781;51.550;5.418;2023-12-29T07:39:25;13.20;75.00
32296;DHT22;18781;51.550;5.418;2023-12-29T07:41:51;13.20;75.10
32296;DHT22;18781;51.550;5.418;2023-12-29T07:44:17;13.20;75.10
32296;DHT22;18781;51.550;5.418;2023-12-29T07:46:43;13.20;75.10
32296;DHT22;18781;51.550;5.418;2023-12-29T07:49:10;13.20;75.20
32296;DHT22;18781;51.550;5.418;2023-12-29T07:51:42;13.20;75.20
32296;DHT22;18781;51.550;5.418;2023-12-29T07:54:08;13.20;75.30
32296;DHT22;18781;51.550;5.418;2023-12-29T07:56:34;13.20;75.30
32296;DHT22;18781;51.550;5.418;2023-12-29T07:59:02;13.20;75.30
32296;DHT22;18781;51.550;5.418;2023-12-29T08:01:28;13.20;75.40
32296;DHT22;18781;51.550;5.418;2023-12-29T08:03:54;13.30;75.40
32296;DHT22;18781;51.550;5.418;2023-12-29T08:06:19;13.20;75.30
32296;DHT22;18781;51.550;5.418;2023-12-29T08:08:45;13.30;75.40
32296;DHT22;18781;51.550;5.418;2023-12-29T08:11:17;13.30;75.40
32296;DHT22;18781;51.550;5.418;2023-12-29T08:13:44;13.30;75.40
32296;DHT22;18781;51.550;5.418;2023-12-29T08:16:10;13.30;75.40
32296;DHT22;18781;51.550;5.418;2023-12-29T08:18:36;13.30;75.40
32296;DHT22;18781;51.550;5.418;2023-12-29T08:21:02;13.30;75.40
32296;DHT22;18781;51.550;5.418;2023-12-29T08:23:28;13.30;75.40
32296;DHT22;18781;51.550;5.418;2023-12-29T08:25:55;13.30;75.40
32296;DHT22;18781;51.550;5.418;2023-12-29T08:28:21;13.30;75.40
32296;DHT22;18781;51.550;5.418;2023-12-29T08:30:46;13.30;75.40
32296;DHT22;18781;51.550;5.418;2023-12-29T08:33:12;13.30;75.30
32296;DHT22;18781;51.550;5.418;2023-12-29T08:35:42;13.30;75.30
32296;DHT22;18781;51.550;5.418;2023-12-29T08:38:08;13.30;75.40
32296;DHT22;18781;51.550;5.418;2023-12-29T08:40:33;13.30;75.20
32296;DHT22;18781;51.550;5.418;2023-12-29T08:42:59;13.30;75.20
32296;DHT22;18781;51.550;5.418;2023-12-29T08:45:27;13.30;75.30
32296;DHT22;18781;51.550;5.418;2023-12-29T08:47:52;13.30;75.50
32296;DHT22;18781;51.550;5.418;2023-12-29T08:50:18;13.30;75.60
32296;DHT22;18781;51.550;5.418;2023-12-29T08:52:44;13.30;75.60
32296;DHT22;18781;51.550;5.418;2023-12-29T08:55:09;13.30;75.50
32296;DHT22;18781;51.550;5.418;2023-12-29T08:57:35;13.30;75.60
32296;DHT22;18781;51.550;5.418;2023-12-29T09:00:01;13.30;75.60
32296;DHT22;18781;51.550;5.418;2023-12-29T09:02:27;13.30;75.60
32296;DHT22;18781;51.550;5.418;2023-12-29T09:04:52;13.30;75.60
32296;DHT22;18781;51.550;5.418;2023-12-29T09:07:18;13.30;75.70
32296;DHT22;18781;51.550;5.418;2023-12-29T09:09:43;13.30;75.80
32296;DHT22;18781;51.550;5.418;2023-12-29T09:12:09;13.30;75.80
32296;DHT22;18781;51.550;5.418;2023-12-29T09:14:35;13.30;75.70
32296;DHT22;18781;51.550;5.418;2023-12-29T09:17:01;13.30;75.80
32296;DHT22;18781;51.550;5.418;2023-12-29T09:19:26;13.30;76.00
32296;DHT22;18781;51.550;5.418;2023-12-29T09:21:53;13.30;76.10
32296;DHT22;18781;51.550;5.418;2023-12-29T09:24:18;13.40;76.20
32296;DHT22;18781;51.550;5.418;2023-12-29T09:26:44;13.30;76.20
32296;DHT22;18781;51.550;5.418;2023-12-29T09:29:09;13.30;76.30
32296;DHT22;18781;51.550;5.418;2023-12-29T09:31:35;13.40;76.30
32296;DHT22;18781;51.550;5.418;2023-12-29T09:34:01;13.30;76.30
32296;DHT22;18781;51.550;5.418;2023-12-29T09:36:27;13.30;76.40
32296;DHT22;18781;51.550;5.418;2023-12-29T09:38:53;13.30;76.50
32296;DHT22;18781;51.550;5.418;2023-12-29T09:41:20;13.30;76.70
32296;DHT22;18781;51.550;5.418;2023-12-29T09:43:49;13.30;76.70
32296;DHT22;18781;51.550;5.418;2023-12-29T09:46:19;13.30;76.80
32296;DHT22;18781;51.550;5.418;2023-12-29T09:48:46;13.30;76.90
32296;DHT22;18781;51.550;5.418;2023-12-29T09:51:13;13.30;76.90
32296;DHT22;18781;51.550;5.418;2023-12-29T09:53:41;13.30;77.10
32296;DHT22;18781;51.550;5.418;2023-12-29T09:56:08;13.30;77.00
32296;DHT22;18781;51.550;5.418;2023-12-29T09:58:34;13.40;77.00
32296;DHT22;18781;51.550;5.418;2023-12-29T10:01:04;13.40;76.80
32296;DHT22;18781;51.550;5.418;2023-12-29T10:03:30;13.40;76.80
32296;DHT22;18781;51.550;5.418;2023-12-29T10:06:03;13.40;76.80
32296;DHT22;18781;51.550;5.418;2023-12-29T10:08:33;13.40;76.70
32296;DHT22;18781;51.550;5.418;2023-12-29T10:11:00;13.50;76.50
32296;DHT22;18781;51.550;5.418;2023-12-29T10:13:28;13.40;76.50
32296;DHT22;18781;51.550;5.418;2023-12-29T10:16:08;13.40;76.30
32296;DHT22;18781;51.550;5.418;2023-12-29T10:18:51;13.50;76.30
32296;DHT22;18781;51.550;5.418;2023-12-29T10:21:33;13.50;76.10
32296;DHT22;18781;51.550;5.418;2023-12-29T10:24:21;13.50;75.60
32296;DHT22;18781;51.550;5.418;2023-12-29T10:26:48;13.50;75.60
32296;DHT22;18781;51.550;5.418;2023-12-29T10:29:15;13.50;75.60
32296;DHT22;18781;51.550;5.418;2023-12-29T10:31:40;13.50;75.50
32296;DHT22;18781;51.550;5.418;2023-12-29T10:34:23;13.50;75.40
32296;DHT22;18781;51.550;5.418;2023-12-29T10:36:58;13.60;75.30
32296;DHT22;18781;51.550;5.418;2023-12-29T10:39:25;13.60;75.20
32296;DHT22;18781;51.550;5.418;2023-12-29T10:42:05;13.60;75.00
32296;DHT22;18781;51.550;5.418;2023-12-29T10:44:33;13.60;74.90
32296;DHT22;18781;51.550;5.418;2023-12-29T10:46:59;13.60;75.00
32296;DHT22;18781;51.550;5.418;2023-12-29T10:49:32;13.60;75.10
32296;DHT22;18781;51.550;5.418;2023-12-29T10:51:58;13.60;75.10
32296;DHT22;18781;51.550;5.418;2023-12-29T10:54:23;13.70;75.20
32296;DHT22;18781;51.550;5.418;2023-12-29T10:57:02;13.70;75.20
32296;DHT22;18781;51.550;5.418;2023-12-29T10:59:30;13.70;75.00
32296;DHT22;18781;51.550;5.418;2023-12-29T11:01:56;13.70;75.00
32296;DHT22;18781;51.550;5.418;2023-12-29T11:04:22;13.70;74.90
32296;DHT22;18781;51.550;5.418;2023-12-29T11:06:48;13.70;74.80
32296;DHT22;18781;51.550;5.418;2023-12-29T11:09:32;13.80;74.90
32296;DHT22;18781;51.550;5.418;2023-12-29T11:12:00;13.80;74.80
32296;DHT22;18781;51.550;5.418;2023-12-29T11:14:26;13.80;74.70
32296;DHT22;18781;51.550;5.418;2023-12-29T11:16:55;13.80;74.80
32296;DHT22;18781;51.550;5.418;2023-12-29T11:19:21;13.80;74.80
32296;DHT22;18781;51.550;5.418;2023-12-29T11:21:48;13.90;74.80
32296;DHT22;18781;51.550;5.418;2023-12-29T11:24:15;13.90;74.90
32296;DHT22;18781;51.550;5.418;2023-12-29T11:26:41;13.90;74.80
32296;DHT22;18781;51.550;5.418;2023-12-29T11:29:09;13.90;74.90
32296;DHT22;18781;51.550;5.418;2023-12-29T11:31:37;13.90;74.90
32296;DHT22;18781;51.550;5.418;2023-12-29T11:34:09;14.00;74.90
32296;DHT22;18781;51.550;5.418;2023-12-29T11:36:41;14.00;75.00
32296;DHT22;18781;51.550;5.418;2023-12-29T11:39:29;14.00;75.00
32296;DHT22;18781;51.550;5.418;2023-12-29T11:42:07;14.00;74.80
32296;DHT22;18781;51.550;5.418;2023-12-29T11:44:37;14.00;74.70
32296;DHT22;18781;51.550;5.418;2023-12-29T11:47:03;14.00;74.70
32296;DHT22;18781;51.550;5.418;2023-12-29T11:49:58;14.10;74.90
32296;DHT22;18781;51.550;5.418;2023-12-29T11:52:40;14.10;75.20
32296;DHT22;18781;51.550;5.418;2023-12-29T11:55:13;14.10;75.20
32296;DHT22;18781;51.550;5.418;2023-12-29T11:57:40;14.00;75.10
32296;DHT22;18781;51.550;5.418;2023-12-29T12:00:07;14.00;75.00
32296;DHT22;18781;51.550;5.418;2023-12-29T12:02:34;14.00;75.10
32296;DHT22;18781;51.550;5.418;2023-12-29T12:04:59;14.00;75.30
32296;DHT22;18781;51.550;5.418;2023-12-29T12:09:50;13.90;75.60
32296;DHT22;18781;51.550;5.418;2023-12-29T12:12:40;13.90;75.80
32296;DHT22;18781;51.550;5.418;2023-12-29T12:18:02;13.90;76.30
32296;DHT22;18781;51.550;5.418;2023-12-29T12:20:33;13.80;76.30
32296;DHT22;18781;51.550;5.418;2023-12-29T12:23:01;13.80;76.30
32296;DHT22;18781;51.550;5.418;2023-12-29T12:25:27;13.80;76.40
32296;DHT22;18781;51.550;5.418;2023-12-29T12:27:56;13.80;76.50
32296;DHT22;18781;51.550;5.418;2023-12-29T12:30:23;13.80;76.50
32296;DHT22;18781;51.550;5.418;2023-12-29T12:32:59;13.80;76.60
32296;DHT22;18781;51.550;5.418;2023-12-29T12:35:25;13.80;76.80
32296;DHT22;18781;51.550;5.418;2023-12-29T12:38:16;13.80;76.60
32296;DHT22;18781;51.550;5.418;2023-12-29T12:40:47;13.80;76.90
32296;DHT22;18781;51.550;5.418;2023-12-29T12:43:14;13.80;76.70
32296;DHT22;18781;51.550;5.418;2023-12-29T12:45:52;13.80;76.70
32296;DHT22;18781;51.550;5.418;2023-12-29T12:48:36;13.70;76.70
32296;DHT22;18781;51.550;5.418;2023-12-29T12:51:05;13.70;76.80
32296;DHT22;18781;51.550;5.418;2023-12-29T12:53:32;13.70;76.70
32296;DHT22;18781;51.550;5.418;2023-12-29T12:55:58;13.70;76.80
32296;DHT22;18781;51.550;5.418;2023-12-29T12:58:24;13.70;76.90
32296;DHT22;18781;51.550;5.418;2023-12-29T13:00:51;13.70;77.00
32296;DHT22;18781;51.550;5.418;2023-12-29T13:03:17;13.70;77.10
32296;DHT22;18781;51.550;5.418;2023-12-29T13:05:44;13.70;77.20
32296;DHT22;18781;51.550;5.418;2023-12-29T13:08:11;13.70;77.40
32296;DHT22;18781;51.550;5.418;2023-12-29T13:10:41;13.70;77.70
32296;DHT22;18781;51.550;5.418;2023-12-29T13:13:08;13.70;77.80
32296;DHT22;18781;51.550;5.418;2023-12-29T13:15:34;13.70;77.70
32296;DHT22;18781;51.550;5.418;2023-12-29T13:17:59;13.60;77.80
32296;DHT22;18781;51.550;5.418;2023-12-29T13:20:25;13.60;77.90
32296;DHT22;18781;51.550;5.418;2023-12-29T13:22:50;13.60;78.00
32296;DHT22;18781;51.550;5.418;2023-12-29T13:25:25;13.60;78.00
32296;DHT22;18781;51.550;5.418;2023-12-29T13:27:53;13.60;78.40
32296;DHT22;18781;51.550;5.418;2023-12-29T13:30:19;13.60;78.20
32296;DHT22;18781;51.550;5.418;2023-12-29T13:32:46;13.60;78.30
32296;DHT22;18781;51.550;5.418;2023-12-29T13:38:08;13.60;78.90
32296;DHT22;18781;51.550;5.418;2023-12-29T13:40:42;13.60;79.00
32296;DHT22;18781;51.550;5.418;2023-12-29T13:43:11;13.60;78.90
32296;DHT22;18781;51.550;5.418;2023-12-29T13:45:40;13.60;78.70
32296;DHT22;18781;51.550;5.418;2023-12-29T13:48:07;13.70;79.00
32296;DHT22;18781;51.550;5.418;2023-12-29T13:50:34;13.70;78.90
32296;DHT22;18781;51.550;5.418;2023-12-29T13:53:00;13.70;78.90
32296;DHT22;18781;51.550;5.418;2023-12-29T13:55:26;13.70;79.00
32296;DHT22;18781;51.550;5.418;2023-12-29T13:57:52;13.70;79.00
32296;DHT22;18781;51.550;5.418;2023-12-29T14:00:22;13.70;79.00
32296;DHT22;18781;51.550;5.418;2023-12-29T14:05:27;13.70;78.80
32296;DHT22;18781;51.550;5.418;2023-12-29T14:10:48;13.80;79.00
32296;DHT22;18781;51.550;5.418;2023-12-29T14:13:15;13.80;78.70
32296;DHT22;18781;51.550;5.418;2023-12-29T14:15:43;13.80;78.70
32296;DHT22;18781;51.550;5.418;2023-12-29T14:21:00;13.80;78.80
32296;DHT22;18781;51.550;5.418;2023-12-29T14:23:26;13.80;78.60
32296;DHT22;18781;51.550;5.418;2023-12-29T14:25:51;13.80;78.50
32296;DHT22;18781;51.550;5.418;2023-12-29T14:28:18;13.80;78.30
32296;DHT22;18781;51.550;5.418;2023-12-29T14:30:44;13.80;78.30
32296;DHT22;18781;51.550;5.418;2023-12-29T14:33:10;13.80;78.30
32296;DHT22;18781;51.550;5.418;2023-12-29T14:35:36;13.80;78.30
32296;DHT22;18781;51.550;5.418;2023-12-29T14:38:02;13.80;78.30
32296;DHT22;18781;51.550;5.418;2023-12-29T14:40:29;13.80;78.20
32296;DHT22;18781;51.550;5.418;2023-12-29T14:42:55;13.80;78.10
32296;DHT22;18781;51.550;5.418;2023-12-29T14:45:20;13.80;78.10
32296;DHT22;18781;51.550;5.418;2023-12-29T14:47:46;13.80;78.10
32296;DHT22;18781;51.550;5.418;2023-12-29T14:50:14;13.80;78.20
32296;DHT22;18781;51.550;5.418;2023-12-29T14:52:40;13.80;78.20
32296;DHT22;18781;51.550;5.418;2023-12-29T14:55:06;13.70;78.30
32296;DHT22;18781;51.550;5.418;2023-12-29T14:57:31;13.80;78.30
32296;DHT22;18781;51.550;5.418;2023-12-29T14:59:57;13.80;78.30
32296;DHT22;18781;51.550;5.418;2023-12-29T15:02:22;13.80;78.30
32296;DHT22;18781;51.550;5.418;2023-12-29T15:04:48;13.70;78.30
32296;DHT22;18781;51.550;5.418;2023-12-29T15:07:18;13.70;77.90
32296;DHT22;18781;51.550;5.418;2023-12-29T15:09:43;13.70;77.70
32296;DHT22;18781;51.550;5.418;2023-12-29T15:12:09;13.70;77.60
32296;DHT22;18781;51.550;5.418;2023-12-29T15:14:35;13.60;77.50
32296;DHT22;18781;51.550;5.418;2023-12-29T15:17:00;13.60;77.50
32296;DHT22;18781;51.550;5.418;2023-12-29T15:19:26;13.50;77.30
32296;DHT22;18781;51.550;5.418;2023-12-29T15:21:52;13.50;77.30
32296;DHT22;18781;51.550;5.418;2023-12-29T15:24:22;13.40;77.50
32296;DHT22;18781;51.550;5.418;2023-12-29T15:26:48;13.40;77.60
32296;DHT22;18781;51.550;5.418;2023-12-29T15:29:14;13.30;77.80
32296;DHT22;18781;51.550;5.418;2023-12-29T15:31:43;13.30;78.10
32296;DHT22;18781;51.550;5.418;2023-12-29T15:34:09;13.30;78.30
32296;DHT22;18781;51.550;5.418;2023-12-29T15:36:35;13.30;78.50
32296;DHT22;18781;51.550;5.418;2023-12-29T15:39:01;13.20;78.60
32296;DHT22;18781;51.550;5.418;2023-12-29T15:41:26;13.20;78.70
32296;DHT22;18781;51.550;5.418;2023-12-29T15:43:52;13.20;78.80
32296;DHT22;18781;51.550;5.418;2023-12-29T15:46:18;13.30;78.90
32296;DHT22;18781;51.550;5.418;2023-12-29T15:48:47;13.30;79.00